This is the latest recevied weather packets stored in our database for station/object W0AVQ. If no packets are shown the sender has not sent any weather packets the latest 10 day(s).
| Time | Temp. | Humidity | Pressure | Rain* | Wind** | Luminosity | Snow |
|---|---|---|---|---|---|---|---|
| 1777491826 | 20° C | 57% | 1017.4 hPa | 0 mm | - | 95 W/m² | - |
| 1777491522 | 20° C | 53% | 1017.3 hPa | 0 mm | - | 105 W/m² | - |
| 1777491220 | 19.44° C | 55% | 1017.2 hPa | 0 mm | - | 135 W/m² | - |
| 1777490915 | 20° C | 59% | 1017.1 hPa | 0 mm | - | 258 W/m² | - |
| 1777490612 | 19.44° C | 58% | 1016.9 hPa | 0 mm | - | 398 W/m² | - |
| 1777490307 | 20° C | 59% | 1016.8 hPa | 0 mm | - | 491 W/m² | - |
| 1777490005 | 20° C | 58% | 1017.1 hPa | 0 mm | - | 358 W/m² | - |
| 1777489703 | 19.44° C | 59% | 1017.3 hPa | 0 mm | - | 169 W/m² | - |
| 1777489399 | 20° C | 61% | 1017.2 hPa | 0 mm | - | 134 W/m² | - |
| 1777489097 | 20° C | 59% | 1017.5 hPa | 0 mm | - | 141 W/m² | - |
| 1777488793 | 19.44° C | 60% | 1017.4 hPa | 0 mm | - | 134 W/m² | - |
| 1777488491 | 20° C | 58% | 1017.3 hPa | 0 mm | - | 130 W/m² | - |
| 1777488189 | 20° C | 62% | 1017.6 hPa | 0 mm | - | 133 W/m² | - |
| 1777487887 | 19.44° C | 61% | 1017.4 hPa | 0 mm | - | 137 W/m² | - |
| 1777487585 | 19.44° C | 62% | 1017.6 hPa | 0 mm | - | 125 W/m² | - |
| 1777487281 | 19.44° C | 62% | 1017.5 hPa | 0 mm | - | 149 W/m² | - |
| 1777486978 | 19.44° C | 66% | 1017.4 hPa | 0 mm | - | 171 W/m² | - |
| 1777486674 | 19.44° C | 63% | 1017.5 hPa | 0 mm | - | 186 W/m² | - |
| 1777486372 | 18.89° C | 63% | 1017.4 hPa | 0 mm | - | 178 W/m² | - |
| 1777486070 | 19.44° C | 63% | 1017.4 hPa | 0 mm | - | 167 W/m² | - |
| 1777485765 | 19.44° C | 64% | 1017.7 hPa | 0 mm | - | 155 W/m² | - |
| 1777485461 | 18.89° C | 62% | 1017.7 hPa | 0 mm | - | 144 W/m² | - |
| 1777485158 | 18.89° C | 63% | 1017.7 hPa | 0 mm | - | 137 W/m² | - |
| 1777484854 | 19.44° C | 63% | 1018 hPa | 0 mm | - | 108 W/m² | - |
| 1777484552 | 18.89° C | 64% | 1017.7 hPa | 0 mm | - | 114 W/m² | - |
* Rain latest hour (hover to see other rain measurements)
** Current wind speed in m/s (hover to see current wind gust speed)